sensor_id;sensor_type;location;lat;lon;timestamp;temperature;humidity
949;DHT22;461;51.436;7.312;2022-12-18T00:00:47;-0.40;99.90
949;DHT22;461;51.436;7.312;2022-12-18T00:03:14;-0.40;99.90
949;DHT22;461;51.436;7.312;2022-12-18T00:05:48;-0.20;99.90
949;DHT22;461;51.436;7.312;2022-12-18T00:08:14;-0.20;99.90
949;DHT22;461;51.436;7.312;2022-12-18T00:10:42;-0.20;99.90
949;DHT22;461;51.436;7.312;2022-12-18T00:13:07;-0.10;99.90
949;DHT22;461;51.436;7.312;2022-12-18T00:15:34;-0.10;99.90
949;DHT22;461;51.436;7.312;2022-12-18T00:18:00;-0.10;99.90
949;DHT22;461;51.436;7.312;2022-12-18T00:20:26;-0.20;99.90
949;DHT22;461;51.436;7.312;2022-12-18T00:22:53;-0.30;99.90
949;DHT22;461;51.436;7.312;2022-12-18T00:25:19;-0.10;99.90
949;DHT22;461;51.436;7.312;2022-12-18T00:27:45;-0.10;99.90
949;DHT22;461;51.436;7.312;2022-12-18T00:30:11;0.00;99.90
949;DHT22;461;51.436;7.312;2022-12-18T00:32:37;0.10;99.90
949;DHT22;461;51.436;7.312;2022-12-18T00:35:04;0.30;99.90
949;DHT22;461;51.436;7.312;2022-12-18T00:37:30;0.40;99.90
949;DHT22;461;51.436;7.312;2022-12-18T00:39:56;0.40;99.90
949;DHT22;461;51.436;7.312;2022-12-18T00:42:21;0.40;99.90
949;DHT22;461;51.436;7.312;2022-12-18T00:45:06;0.40;99.90
949;DHT22;461;51.436;7.312;2022-12-18T00:47:32;0.40;99.90
949;DHT22;461;51.436;7.312;2022-12-18T00:49:58;0.30;99.90
949;DHT22;461;51.436;7.312;2022-12-18T00:52:24;0.20;99.90
949;DHT22;461;51.436;7.312;2022-12-18T00:54:49;0.40;99.90
949;DHT22;461;51.436;7.312;2022-12-18T00:57:15;0.60;99.90
949;DHT22;461;51.436;7.312;2022-12-18T00:59:41;0.70;99.90
949;DHT22;461;51.436;7.312;2022-12-18T01:02:07;0.90;99.90
949;DHT22;461;51.436;7.312;2022-12-18T01:04:33;1.10;99.90
949;DHT22;461;51.436;7.312;2022-12-18T01:06:58;1.30;99.90
949;DHT22;461;51.436;7.312;2022-12-18T01:09:24;1.20;99.80
949;DHT22;461;51.436;7.312;2022-12-18T01:11:50;1.30;99.90
949;DHT22;461;51.436;7.312;2022-12-18T01:14:16;1.20;99.60
949;DHT22;461;51.436;7.312;2022-12-18T01:16:42;1.00;99.90
949;DHT22;461;51.436;7.312;2022-12-18T01:19:07;0.70;99.90
949;DHT22;461;51.436;7.312;2022-12-18T01:21:33;0.70;99.90
949;DHT22;461;51.436;7.312;2022-12-18T01:23:59;0.50;99.90
949;DHT22;461;51.436;7.312;2022-12-18T01:26:25;0.50;99.90
949;DHT22;461;51.436;7.312;2022-12-18T01:28:55;0.30;99.90
949;DHT22;461;51.436;7.312;2022-12-18T01:31:27;0.40;99.90
949;DHT22;461;51.436;7.312;2022-12-18T01:33:54;0.40;99.90
949;DHT22;461;51.436;7.312;2022-12-18T01:36:26;0.40;99.90
949;DHT22;461;51.436;7.312;2022-12-18T01:38:52;0.50;99.90
949;DHT22;461;51.436;7.312;2022-12-18T01:41:25;0.50;99.90
949;DHT22;461;51.436;7.312;2022-12-18T01:43:54;0.60;99.90
949;DHT22;461;51.436;7.312;2022-12-18T01:46:22;0.80;99.90
949;DHT22;461;51.436;7.312;2022-12-18T01:48:55;0.90;99.90
949;DHT22;461;51.436;7.312;2022-12-18T01:51:22;1.10;99.90
949;DHT22;461;51.436;7.312;2022-12-18T01:53:48;1.30;99.90
949;DHT22;461;51.436;7.312;2022-12-18T01:56:19;1.40;99.90
949;DHT22;461;51.436;7.312;2022-12-18T01:58:59;1.40;99.90
949;DHT22;461;51.436;7.312;2022-12-18T02:01:28;1.40;99.90
949;DHT22;461;51.436;7.312;2022-12-18T02:03:54;1.70;99.90
949;DHT22;461;51.436;7.312;2022-12-18T02:06:37;1.80;99.90
949;DHT22;461;51.436;7.312;2022-12-18T02:09:17;1.70;99.90
949;DHT22;461;51.436;7.312;2022-12-18T02:11:53;1.70;99.90
949;DHT22;461;51.436;7.312;2022-12-18T02:14:27;1.70;99.90
949;DHT22;461;51.436;7.312;2022-12-18T02:22:23;1.40;99.90
949;DHT22;461;51.436;7.312;2022-12-18T02:25:14;1.40;99.90
949;DHT22;461;51.436;7.312;2022-12-18T02:27:44;1.20;99.90
949;DHT22;461;51.436;7.312;2022-12-18T02:30:11;1.30;99.90
949;DHT22;461;51.436;7.312;2022-12-18T02:32:42;1.40;99.90
949;DHT22;461;51.436;7.312;2022-12-18T02:35:15;1.50;99.90
949;DHT22;461;51.436;7.312;2022-12-18T02:37:44;1.70;99.90
949;DHT22;461;51.436;7.312;2022-12-18T02:40:12;1.70;99.90
949;DHT22;461;51.436;7.312;2022-12-18T02:42:39;1.60;99.90
949;DHT22;461;51.436;7.312;2022-12-18T02:45:05;1.70;99.90
949;DHT22;461;51.436;7.312;2022-12-18T02:47:33;1.80;99.90
949;DHT22;461;51.436;7.312;2022-12-18T02:50:16;1.90;99.90
949;DHT22;461;51.436;7.312;2022-12-18T03:03:36;1.30;99.90
949;DHT22;461;51.436;7.312;2022-12-18T03:06:14;0.90;99.90
949;DHT22;461;51.436;7.312;2022-12-18T03:08:45;0.80;99.90
949;DHT22;461;51.436;7.312;2022-12-18T03:11:13;0.80;99.90
949;DHT22;461;51.436;7.312;2022-12-18T03:13:51;0.80;99.90
949;DHT22;461;51.436;7.312;2022-12-18T03:16:24;0.80;99.90
949;DHT22;461;51.436;7.312;2022-12-18T03:19:11;1.10;99.90
949;DHT22;461;51.436;7.312;2022-12-18T03:22:00;1.00;99.90
949;DHT22;461;51.436;7.312;2022-12-18T03:24:29;0.90;99.90
949;DHT22;461;51.436;7.312;2022-12-18T03:27:00;0.90;99.90
949;DHT22;461;51.436;7.312;2022-12-18T03:29:49;0.80;99.90
949;DHT22;461;51.436;7.312;2022-12-18T03:32:29;1.00;99.90
949;DHT22;461;51.436;7.312;2022-12-18T03:35:00;1.20;99.90
949;DHT22;461;51.436;7.312;2022-12-18T03:37:28;1.30;99.90
949;DHT22;461;51.436;7.312;2022-12-18T03:39:53;1.50;99.90
949;DHT22;461;51.436;7.312;2022-12-18T03:42:47;1.60;99.90
949;DHT22;461;51.436;7.312;2022-12-18T03:45:23;1.90;99.90
949;DHT22;461;51.436;7.312;2022-12-18T03:50:50;1.80;99.90
949;DHT22;461;51.436;7.312;2022-12-18T03:56:04;1.90;99.70
949;DHT22;461;51.436;7.312;2022-12-18T03:58:32;1.90;99.40
949;DHT22;461;51.436;7.312;2022-12-18T04:01:02;2.00;99.40
949;DHT22;461;51.436;7.312;2022-12-18T04:03:30;1.90;99.40
949;DHT22;461;51.436;7.312;2022-12-18T04:05:59;1.80;99.50
949;DHT22;461;51.436;7.312;2022-12-18T04:08:26;1.60;99.50
949;DHT22;461;51.436;7.312;2022-12-18T04:10:52;1.60;99.90
949;DHT22;461;51.436;7.312;2022-12-18T04:13:29;1.70;99.80
949;DHT22;461;51.436;7.312;2022-12-18T04:15:55;1.50;99.90
949;DHT22;461;51.436;7.312;2022-12-18T04:18:21;1.40;99.90
949;DHT22;461;51.436;7.312;2022-12-18T04:20:46;1.20;99.90
949;DHT22;461;51.436;7.312;2022-12-18T04:23:13;1.10;99.90
949;DHT22;461;51.436;7.312;2022-12-18T04:25:39;1.10;99.90
949;DHT22;461;51.436;7.312;2022-12-18T04:28:04;1.10;99.90
949;DHT22;461;51.436;7.312;2022-12-18T04:30:30;1.10;99.90
949;DHT22;461;51.436;7.312;2022-12-18T04:32:56;1.30;99.90
949;DHT22;461;51.436;7.312;2022-12-18T04:35:22;1.50;99.90
949;DHT22;461;51.436;7.312;2022-12-18T04:37:48;1.70;99.90
949;DHT22;461;51.436;7.312;2022-12-18T04:40:13;1.80;99.70
949;DHT22;461;51.436;7.312;2022-12-18T04:42:40;1.90;99.30
949;DHT22;461;51.436;7.312;2022-12-18T04:45:06;2.20;98.50
949;DHT22;461;51.436;7.312;2022-12-18T04:47:32;2.10;98.40
949;DHT22;461;51.436;7.312;2022-12-18T04:49:58;1.90;98.20
949;DHT22;461;51.436;7.312;2022-12-18T04:52:24;2.10;98.10
949;DHT22;461;51.436;7.312;2022-12-18T04:54:50;2.10;98.20
949;DHT22;461;51.436;7.312;2022-12-18T04:57:15;2.10;97.70
949;DHT22;461;51.436;7.312;2022-12-18T04:59:41;2.00;97.90
949;DHT22;461;51.436;7.312;2022-12-18T05:02:07;1.80;98.10
949;DHT22;461;51.436;7.312;2022-12-18T05:04:32;1.80;98.60
949;DHT22;461;51.436;7.312;2022-12-18T05:06:58;1.60;98.30
949;DHT22;461;51.436;7.312;2022-12-18T05:09:24;1.30;99.00
949;DHT22;461;51.436;7.312;2022-12-18T05:11:50;1.20;99.40
949;DHT22;461;51.436;7.312;2022-12-18T05:14:15;1.00;99.60
949;DHT22;461;51.436;7.312;2022-12-18T05:16:41;0.90;99.90
949;DHT22;461;51.436;7.312;2022-12-18T05:19:07;0.70;99.90
949;DHT22;461;51.436;7.312;2022-12-18T05:21:32;0.60;99.90
949;DHT22;461;51.436;7.312;2022-12-18T05:23:58;0.60;99.90
949;DHT22;461;51.436;7.312;2022-12-18T05:26:24;0.40;99.90
949;DHT22;461;51.436;7.312;2022-12-18T05:28:50;0.30;99.90
949;DHT22;461;51.436;7.312;2022-12-18T05:31:16;0.30;99.90
949;DHT22;461;51.436;7.312;2022-12-18T05:33:42;0.20;99.90
949;DHT22;461;51.436;7.312;2022-12-18T05:36:09;0.00;99.90
949;DHT22;461;51.436;7.312;2022-12-18T05:38:37;-0.10;99.90
949;DHT22;461;51.436;7.312;2022-12-18T05:41:02;0.10;99.90
949;DHT22;461;51.436;7.312;2022-12-18T05:43:29;0.10;99.90
949;DHT22;461;51.436;7.312;2022-12-18T05:45:54;0.10;99.90
949;DHT22;461;51.436;7.312;2022-12-18T05:48:21;0.10;99.90
949;DHT22;461;51.436;7.312;2022-12-18T05:50:49;0.00;99.90
949;DHT22;461;51.436;7.312;2022-12-18T05:53:18;0.10;99.90
949;DHT22;461;51.436;7.312;2022-12-18T05:55:45;0.10;99.90
949;DHT22;461;51.436;7.312;2022-12-18T05:58:12;0.10;99.90
949;DHT22;461;51.436;7.312;2022-12-18T06:00:40;0.10;99.90
949;DHT22;461;51.436;7.312;2022-12-18T06:03:08;0.00;99.90
949;DHT22;461;51.436;7.312;2022-12-18T06:05:39;0.10;99.90
949;DHT22;461;51.436;7.312;2022-12-18T06:08:05;0.00;99.90
949;DHT22;461;51.436;7.312;2022-12-18T06:10:31;-0.10;99.90
949;DHT22;461;51.436;7.312;2022-12-18T06:12:58;-0.30;99.90
949;DHT22;461;51.436;7.312;2022-12-18T06:15:23;-0.40;99.90
949;DHT22;461;51.436;7.312;2022-12-18T06:17:50;-0.50;99.90
949;DHT22;461;51.436;7.312;2022-12-18T06:20:16;-0.50;99.90
949;DHT22;461;51.436;7.312;2022-12-18T06:22:42;-0.50;99.90
949;DHT22;461;51.436;7.312;2022-12-18T06:25:08;-0.70;99.90
949;DHT22;461;51.436;7.312;2022-12-18T06:27:33;-0.70;99.90
949;DHT22;461;51.436;7.312;2022-12-18T06:30:00;-0.70;99.90
949;DHT22;461;51.436;7.312;2022-12-18T06:32:26;-0.70;99.90
949;DHT22;461;51.436;7.312;2022-12-18T06:34:52;-0.60;99.90
949;DHT22;461;51.436;7.312;2022-12-18T06:37:19;-0.50;99.90
949;DHT22;461;51.436;7.312;2022-12-18T06:39:44;-0.40;99.90
949;DHT22;461;51.436;7.312;2022-12-18T06:42:10;-0.30;99.90
949;DHT22;461;51.436;7.312;2022-12-18T06:44:36;-0.30;99.90
949;DHT22;461;51.436;7.312;2022-12-18T06:47:02;-0.20;99.90
949;DHT22;461;51.436;7.312;2022-12-18T06:49:28;0.00;99.90
949;DHT22;461;51.436;7.312;2022-12-18T06:51:53;0.20;99.90
949;DHT22;461;51.436;7.312;2022-12-18T06:54:19;0.10;99.90
949;DHT22;461;51.436;7.312;2022-12-18T06:56:46;0.20;99.90
949;DHT22;461;51.436;7.312;2022-12-18T06:59:15;0.00;99.90
949;DHT22;461;51.436;7.312;2022-12-18T07:01:41;-0.10;99.90
949;DHT22;461;51.436;7.312;2022-12-18T07:04:06;-0.30;99.90
949;DHT22;461;51.436;7.312;2022-12-18T07:06:32;-0.50;99.90
949;DHT22;461;51.436;7.312;2022-12-18T07:08:58;-0.70;99.90
949;DHT22;461;51.436;7.312;2022-12-18T07:11:24;-0.80;99.90
949;DHT22;461;51.436;7.312;2022-12-18T07:13:50;-1.00;99.90
949;DHT22;461;51.436;7.312;2022-12-18T07:16:19;-0.80;99.90
949;DHT22;461;51.436;7.312;2022-12-18T07:18:45;-0.80;99.90
949;DHT22;461;51.436;7.312;2022-12-18T07:21:14;-0.80;99.90
949;DHT22;461;51.436;7.312;2022-12-18T07:23:40;-0.70;99.90
949;DHT22;461;51.436;7.312;2022-12-18T07:26:08;-0.50;99.90
949;DHT22;461;51.436;7.312;2022-12-18T07:28:35;-0.40;99.90
949;DHT22;461;51.436;7.312;2022-12-18T07:31:13;-0.30;99.90
949;DHT22;461;51.436;7.312;2022-12-18T07:33:40;0.00;99.80
949;DHT22;461;51.436;7.312;2022-12-18T07:36:07;0.20;99.10
949;DHT22;461;51.436;7.312;2022-12-18T07:38:35;0.40;98.70
949;DHT22;461;51.436;7.312;2022-12-18T07:41:13;0.70;98.00
949;DHT22;461;51.436;7.312;2022-12-18T07:43:40;0.70;97.50
949;DHT22;461;51.436;7.312;2022-12-18T07:46:08;0.80;97.50
949;DHT22;461;51.436;7.312;2022-12-18T07:48:34;1.00;97.00
949;DHT22;461;51.436;7.312;2022-12-18T07:51:04;0.70;96.90
949;DHT22;461;51.436;7.312;2022-12-18T07:53:30;0.50;96.80
949;DHT22;461;51.436;7.312;2022-12-18T07:55:57;0.40;97.10
949;DHT22;461;51.436;7.312;2022-12-18T07:58:24;0.30;97.30
949;DHT22;461;51.436;7.312;2022-12-18T08:00:50;0.40;97.50
949;DHT22;461;51.436;7.312;2022-12-18T08:03:16;0.50;97.30
949;DHT22;461;51.436;7.312;2022-12-18T08:05:42;0.70;97.00
949;DHT22;461;51.436;7.312;2022-12-18T08:08:07;0.70;97.00
949;DHT22;461;51.436;7.312;2022-12-18T08:10:33;1.00;97.10
949;DHT22;461;51.436;7.312;2022-12-18T08:12:59;1.30;95.90
949;DHT22;461;51.436;7.312;2022-12-18T08:15:24;1.40;95.60
949;DHT22;461;51.436;7.312;2022-12-18T08:17:50;1.50;95.20
949;DHT22;461;51.436;7.312;2022-12-18T08:20:16;1.50;94.90
949;DHT22;461;51.436;7.312;2022-12-18T08:22:44;1.60;94.90
949;DHT22;461;51.436;7.312;2022-12-18T08:25:10;1.70;94.70
949;DHT22;461;51.436;7.312;2022-12-18T08:27:36;1.90;93.80
949;DHT22;461;51.436;7.312;2022-12-18T08:30:03;2.00;94.30
949;DHT22;461;51.436;7.312;2022-12-18T08:32:29;2.10;94.40
949;DHT22;461;51.436;7.312;2022-12-18T08:34:54;2.40;95.40
949;DHT22;461;51.436;7.312;2022-12-18T08:37:20;2.60;93.20
949;DHT22;461;51.436;7.312;2022-12-18T08:39:46;2.90;93.20
949;DHT22;461;51.436;7.312;2022-12-18T08:42:12;3.00;91.00
949;DHT22;461;51.436;7.312;2022-12-18T08:44:56;3.20;91.40
949;DHT22;461;51.436;7.312;2022-12-18T08:47:22;3.30;89.00
949;DHT22;461;51.436;7.312;2022-12-18T08:49:47;3.60;87.50
949;DHT22;461;51.436;7.312;2022-12-18T09:02:01;3.70;87.20
949;DHT22;461;51.436;7.312;2022-12-18T09:04:26;4.50;77.30
949;DHT22;461;51.436;7.312;2022-12-18T09:06:55;4.60;75.90
949;DHT22;461;51.436;7.312;2022-12-18T09:09:21;4.70;75.40
949;DHT22;461;51.436;7.312;2022-12-18T09:11:47;5.00;73.10
949;DHT22;461;51.436;7.312;2022-12-18T09:14:12;5.20;71.40
949;DHT22;461;51.436;7.312;2022-12-18T09:23:58;5.40;71.30
949;DHT22;461;51.436;7.312;2022-12-18T09:28:51;6.00;65.30
949;DHT22;461;51.436;7.312;2022-12-18T09:53:53;6.20;63.20
949;DHT22;461;51.436;7.312;2022-12-18T09:56:22;6.60;59.50
949;DHT22;461;51.436;7.312;2022-12-18T10:01:23;6.40;59.60
949;DHT22;461;51.436;7.312;2022-12-18T10:03:52;6.50;58.80
949;DHT22;461;51.436;7.312;2022-12-18T10:11:45;7.00;58.40
949;DHT22;461;51.436;7.312;2022-12-18T10:14:40;7.20;57.60
949;DHT22;461;51.436;7.312;2022-12-18T10:17:43;7.30;57.10
949;DHT22;461;51.436;7.312;2022-12-18T10:20:24;7.40;57.10
949;DHT22;461;51.436;7.312;2022-12-18T10:28:32;7.60;55.30
949;DHT22;461;51.436;7.312;2022-12-18T10:30:59;7.60;55.80
949;DHT22;461;51.436;7.312;2022-12-18T10:33:29;7.60;56.00
949;DHT22;461;51.436;7.312;2022-12-18T10:35:56;7.50;54.60
949;DHT22;461;51.436;7.312;2022-12-18T10:38:28;7.60;54.90
949;DHT22;461;51.436;7.312;2022-12-18T10:41:01;7.60;54.20
949;DHT22;461;51.436;7.312;2022-12-18T10:48:55;7.00;54.80
949;DHT22;461;51.436;7.312;2022-12-18T10:51:30;6.90;55.70
949;DHT22;461;51.436;7.312;2022-12-18T10:54:18;7.50;54.60
949;DHT22;461;51.436;7.312;2022-12-18T10:56:45;7.50;54.30
949;DHT22;461;51.436;7.312;2022-12-18T10:59:16;7.70;52.30
949;DHT22;461;51.436;7.312;2022-12-18T11:02:07;7.70;53.40
949;DHT22;461;51.436;7.312;2022-12-18T11:04:52;7.60;52.30
949;DHT22;461;51.436;7.312;2022-12-18T11:07:18;7.80;51.80
949;DHT22;461;51.436;7.312;2022-12-18T11:10:02;7.70;51.50
949;DHT22;461;51.436;7.312;2022-12-18T11:12:29;7.80;50.80
949;DHT22;461;51.436;7.312;2022-12-18T11:14:58;7.60;52.00
949;DHT22;461;51.436;7.312;2022-12-18T11:17:30;7.40;53.00
949;DHT22;461;51.436;7.312;2022-12-18T11:19:58;7.20;52.40
949;DHT22;461;51.436;7.312;2022-12-18T11:22:30;7.20;51.20
949;DHT22;461;51.436;7.312;2022-12-18T11:25:18;7.10;51.40
949;DHT22;461;51.436;7.312;2022-12-18T11:27:53;7.30;52.10
949;DHT22;461;51.436;7.312;2022-12-18T11:38:12;8.20;49.70
949;DHT22;461;51.436;7.312;2022-12-18T11:40:45;8.20;49.50
949;DHT22;461;51.436;7.312;2022-12-18T11:43:21;8.40;48.90
949;DHT22;461;51.436;7.312;2022-12-18T11:46:03;8.20;46.80
949;DHT22;461;51.436;7.312;2022-12-18T11:48:42;8.20;50.70
949;DHT22;461;51.436;7.312;2022-12-18T11:51:25;8.10;50.90
949;DHT22;461;51.436;7.312;2022-12-18T11:53:53;8.10;47.70
949;DHT22;461;51.436;7.312;2022-12-18T11:59:01;8.10;47.00
949;DHT22;461;51.436;7.312;2022-12-18T12:15:41;7.00;48.30
949;DHT22;461;51.436;7.312;2022-12-18T12:18:26;7.10;48.20
949;DHT22;461;51.436;7.312;2022-12-18T12:23:41;7.30;47.10
949;DHT22;461;51.436;7.312;2022-12-18T12:26:17;7.30;47.00
949;DHT22;461;51.436;7.312;2022-12-18T12:34:48;7.20;47.00
949;DHT22;461;51.436;7.312;2022-12-18T12:37:19;7.40;47.40
949;DHT22;461;51.436;7.312;2022-12-18T12:39:51;7.50;47.40
949;DHT22;461;51.436;7.312;2022-12-18T12:42:33;7.40;47.60
949;DHT22;461;51.436;7.312;2022-12-18T12:45:34;7.60;47.40
949;DHT22;461;51.436;7.312;2022-12-18T12:48:02;7.60;47.30
949;DHT22;461;51.436;7.312;2022-12-18T12:50:33;7.60;47.80
949;DHT22;461;51.436;7.312;2022-12-18T12:53:01;7.50;48.30
949;DHT22;461;51.436;7.312;2022-12-18T12:55:32;7.50;48.50
949;DHT22;461;51.436;7.312;2022-12-18T12:58:21;7.70;48.70
949;DHT22;461;51.436;7.312;2022-12-18T13:00:56;7.70;47.70
949;DHT22;461;51.436;7.312;2022-12-18T13:09:00;7.70;49.70
949;DHT22;461;51.436;7.312;2022-12-18T13:11:41;7.90;48.90
949;DHT22;461;51.436;7.312;2022-12-18T13:14:30;7.80;48.90
949;DHT22;461;51.436;7.312;2022-12-18T13:17:27;7.80;48.50
949;DHT22;461;51.436;7.312;2022-12-18T13:20:14;7.70;49.50
949;DHT22;461;51.436;7.312;2022-12-18T13:22:48;7.70;50.00
949;DHT22;461;51.436;7.312;2022-12-18T13:25:35;7.70;49.60
949;DHT22;461;51.436;7.312;2022-12-18T13:43:23;7.30;52.70
949;DHT22;461;51.436;7.312;2022-12-18T13:46:03;7.20;52.70
949;DHT22;461;51.436;7.312;2022-12-18T13:48:32;7.00;53.30
949;DHT22;461;51.436;7.312;2022-12-18T13:51:07;6.80;53.40
949;DHT22;461;51.436;7.312;2022-12-18T13:53:42;6.70;55.00
949;DHT22;461;51.436;7.312;2022-12-18T13:56:08;6.60;55.50
949;DHT22;461;51.436;7.312;2022-12-18T13:58:34;6.60;56.60
949;DHT22;461;51.436;7.312;2022-12-18T14:01:00;6.50;56.80
949;DHT22;461;51.436;7.312;2022-12-18T14:03:29;6.50;56.70
949;DHT22;461;51.436;7.312;2022-12-18T14:06:00;6.30;56.40
949;DHT22;461;51.436;7.312;2022-12-18T14:08:33;6.10;56.90
949;DHT22;461;51.436;7.312;2022-12-18T14:11:01;5.80;58.20
949;DHT22;461;51.436;7.312;2022-12-18T14:13:38;5.70;59.90
949;DHT22;461;51.436;7.312;2022-12-18T14:16:13;5.60;60.00
949;DHT22;461;51.436;7.312;2022-12-18T14:18:44;5.40;59.90
949;DHT22;461;51.436;7.312;2022-12-18T14:21:20;5.30;61.70
949;DHT22;461;51.436;7.312;2022-12-18T14:23:46;5.40;62.80
949;DHT22;461;51.436;7.312;2022-12-18T14:26:30;5.40;61.20
949;DHT22;461;51.436;7.312;2022-12-18T14:28:59;5.40;61.80
949;DHT22;461;51.436;7.312;2022-12-18T14:31:29;5.20;61.50
949;DHT22;461;51.436;7.312;2022-12-18T14:33:55;5.20;62.70
949;DHT22;461;51.436;7.312;2022-12-18T14:36:24;5.50;62.60
949;DHT22;461;51.436;7.312;2022-12-18T14:38:54;5.60;62.40
949;DHT22;461;51.436;7.312;2022-12-18T14:41:25;5.60;61.40
949;DHT22;461;51.436;7.312;2022-12-18T14:43:53;5.30;61.70
949;DHT22;461;51.436;7.312;2022-12-18T14:46:30;5.40;61.50
949;DHT22;461;51.436;7.312;2022-12-18T14:49:41;5.40;62.80
949;DHT22;461;51.436;7.312;2022-12-18T14:51:56;5.20;62.60
949;DHT22;461;51.436;7.312;2022-12-18T14:54:27;5.20;63.20
949;DHT22;461;51.436;7.312;2022-12-18T14:57:27;5.10;63.70
949;DHT22;461;51.436;7.312;2022-12-18T14:59:53;5.20;64.10
949;DHT22;461;51.436;7.312;2022-12-18T15:02:22;5.00;64.30
949;DHT22;461;51.436;7.312;2022-12-18T15:07:54;5.30;62.70
949;DHT22;461;51.436;7.312;2022-12-18T15:36:13;4.90;63.40
949;DHT22;461;51.436;7.312;2022-12-18T15:58:55;4.90;67.90
949;DHT22;461;51.436;7.312;2022-12-18T16:11:22;4.90;69.10
949;DHT22;461;51.436;7.312;2022-12-18T16:14:17;4.60;72.60
949;DHT22;461;51.436;7.312;2022-12-18T16:16:45;4.50;72.80
949;DHT22;461;51.436;7.312;2022-12-18T16:19:12;4.40;74.70
949;DHT22;461;51.436;7.312;2022-12-18T16:21:38;4.30;75.00
949;DHT22;461;51.436;7.312;2022-12-18T16:24:04;4.10;75.70
949;DHT22;461;51.436;7.312;2022-12-18T16:26:33;4.00;78.40
949;DHT22;461;51.436;7.312;2022-12-18T16:36:35;4.00;80.60
949;DHT22;461;51.436;7.312;2022-12-18T16:39:04;4.30;83.80
949;DHT22;461;51.436;7.312;2022-12-18T16:41:30;4.20;84.00
949;DHT22;461;51.436;7.312;2022-12-18T16:44:05;4.10;85.00
949;DHT22;461;51.436;7.312;2022-12-18T16:46:32;4.00;86.90
949;DHT22;461;51.436;7.312;2022-12-18T16:48:59;4.00;88.60
949;DHT22;461;51.436;7.312;2022-12-18T16:51:26;4.00;90.10
949;DHT22;461;51.436;7.312;2022-12-18T16:53:55;3.80;90.70
949;DHT22;461;51.436;7.312;2022-12-18T16:56:24;3.70;91.10
949;DHT22;461;51.436;7.312;2022-12-18T17:01:18;3.60;91.70
949;DHT22;461;51.436;7.312;2022-12-18T17:03:44;3.60;95.90
949;DHT22;461;51.436;7.312;2022-12-18T17:06:09;3.70;94.10
949;DHT22;461;51.436;7.312;2022-12-18T17:08:36;3.70;94.10
949;DHT22;461;51.436;7.312;2022-12-18T17:11:07;3.60;94.20
949;DHT22;461;51.436;7.312;2022-12-18T17:13:35;3.50;94.40
949;DHT22;461;51.436;7.312;2022-12-18T17:16:05;3.50;95.10
949;DHT22;461;51.436;7.312;2022-12-18T17:18:32;3.40;95.50
949;DHT22;461;51.436;7.312;2022-12-18T17:21:02;3.40;96.10
949;DHT22;461;51.436;7.312;2022-12-18T17:23:29;3.40;96.40
949;DHT22;461;51.436;7.312;2022-12-18T17:25:56;3.40;96.90
949;DHT22;461;51.436;7.312;2022-12-18T17:28:24;3.30;97.20
949;DHT22;461;51.436;7.312;2022-12-18T17:30:54;3.20;97.60
949;DHT22;461;51.436;7.312;2022-12-18T17:33:20;3.20;98.10
949;DHT22;461;51.436;7.312;2022-12-18T17:35:46;3.30;98.40
949;DHT22;461;51.436;7.312;2022-12-18T17:38:12;3.30;98.40
949;DHT22;461;51.436;7.312;2022-12-18T17:40:39;3.40;98.50
949;DHT22;461;51.436;7.312;2022-12-18T17:43:09;3.50;98.70
949;DHT22;461;51.436;7.312;2022-12-18T17:45:38;3.40;98.50
949;DHT22;461;51.436;7.312;2022-12-18T17:48:05;3.20;98.80
949;DHT22;461;51.436;7.312;2022-12-18T17:50:33;3.10;98.90
949;DHT22;461;51.436;7.312;2022-12-18T17:52:59;3.00;99.30
949;DHT22;461;51.436;7.312;2022-12-18T17:55:26;3.00;99.50
949;DHT22;461;51.436;7.312;2022-12-18T17:57:52;3.00;99.60
949;DHT22;461;51.436;7.312;2022-12-18T18:00:19;3.10;99.70
949;DHT22;461;51.436;7.312;2022-12-18T18:02:47;3.00;99.90
949;DHT22;461;51.436;7.312;2022-12-18T18:05:12;3.10;99.90
949;DHT22;461;51.436;7.312;2022-12-18T18:07:38;3.00;99.90
949;DHT22;461;51.436;7.312;2022-12-18T18:10:06;3.10;99.90
949;DHT22;461;51.436;7.312;2022-12-18T18:12:32;2.90;99.90
949;DHT22;461;51.436;7.312;2022-12-18T18:15:17;3.00;99.90
949;DHT22;461;51.436;7.312;2022-12-18T18:18:21;2.90;99.90
949;DHT22;461;51.436;7.312;2022-12-18T18:20:47;2.90;99.90
949;DHT22;461;51.436;7.312;2022-12-18T18:23:13;3.10;99.90
949;DHT22;461;51.436;7.312;2022-12-18T18:25:38;2.90;99.90
949;DHT22;461;51.436;7.312;2022-12-18T18:28:04;3.00;99.90
949;DHT22;461;51.436;7.312;2022-12-18T18:30:30;3.30;99.90
949;DHT22;461;51.436;7.312;2022-12-18T18:32:56;3.30;99.90
949;DHT22;461;51.436;7.312;2022-12-18T18:35:21;3.20;99.90
949;DHT22;461;51.436;7.312;2022-12-18T18:37:48;3.30;99.90
949;DHT22;461;51.436;7.312;2022-12-18T18:40:14;3.20;99.90
949;DHT22;461;51.436;7.312;2022-12-18T18:43:03;3.10;99.90
949;DHT22;461;51.436;7.312;2022-12-18T18:45:40;3.00;99.90
949;DHT22;461;51.436;7.312;2022-12-18T18:48:06;2.90;99.90
949;DHT22;461;51.436;7.312;2022-12-18T18:50:33;2.80;99.90
949;DHT22;461;51.436;7.312;2022-12-18T18:52:59;2.90;99.90
949;DHT22;461;51.436;7.312;2022-12-18T18:55:25;2.80;99.90
949;DHT22;461;51.436;7.312;2022-12-18T18:57:51;3.00;99.90
949;DHT22;461;51.436;7.312;2022-12-18T19:00:17;3.00;99.90
949;DHT22;461;51.436;7.312;2022-12-18T19:02:43;3.00;99.90
949;DHT22;461;51.436;7.312;2022-12-18T19:05:09;3.00;99.90
949;DHT22;461;51.436;7.312;2022-12-18T19:07:35;2.90;99.90
949;DHT22;461;51.436;7.312;2022-12-18T19:10:01;3.00;99.90
949;DHT22;461;51.436;7.312;2022-12-18T19:12:26;3.10;99.90
949;DHT22;461;51.436;7.312;2022-12-18T19:15:16;2.90;99.90
949;DHT22;461;51.436;7.312;2022-12-18T19:17:42;2.80;99.90
949;DHT22;461;51.436;7.312;2022-12-18T19:20:08;3.00;99.90
949;DHT22;461;51.436;7.312;2022-12-18T19:22:34;2.90;99.90
949;DHT22;461;51.436;7.312;2022-12-18T19:25:00;2.70;99.90
949;DHT22;461;51.436;7.312;2022-12-18T19:27:29;2.70;99.90
949;DHT22;461;51.436;7.312;2022-12-18T19:29:56;2.60;99.90
949;DHT22;461;51.436;7.312;2022-12-18T19:32:29;2.60;99.90
949;DHT22;461;51.436;7.312;2022-12-18T19:34:57;2.60;99.90
949;DHT22;461;51.436;7.312;2022-12-18T19:37:30;2.70;99.90
949;DHT22;461;51.436;7.312;2022-12-18T19:40:17;2.70;99.90
949;DHT22;461;51.436;7.312;2022-12-18T19:42:45;2.70;99.90
949;DHT22;461;51.436;7.312;2022-12-18T19:45:14;2.70;99.90
949;DHT22;461;51.436;7.312;2022-12-18T19:47:40;2.60;99.90
949;DHT22;461;51.436;7.312;2022-12-18T19:50:09;2.70;99.90
949;DHT22;461;51.436;7.312;2022-12-18T19:52:39;2.70;99.90
949;DHT22;461;51.436;7.312;2022-12-18T19:55:40;2.80;99.90
949;DHT22;461;51.436;7.312;2022-12-18T19:58:16;2.80;99.90
949;DHT22;461;51.436;7.312;2022-12-18T20:17:45;2.80;99.90
949;DHT22;461;51.436;7.312;2022-12-18T20:20:48;3.00;99.70
949;DHT22;461;51.436;7.312;2022-12-18T20:23:18;3.00;99.60
949;DHT22;461;51.436;7.312;2022-12-18T20:25:50;3.00;99.90
949;DHT22;461;51.436;7.312;2022-12-18T20:28:25;3.20;99.40
949;DHT22;461;51.436;7.312;2022-12-18T20:31:03;3.20;99.70
949;DHT22;461;51.436;7.312;2022-12-18T20:33:34;3.30;99.50
949;DHT22;461;51.436;7.312;2022-12-18T20:39:46;3.60;99.10
949;DHT22;461;51.436;7.312;2022-12-18T20:42:26;3.50;98.50
949;DHT22;461;51.436;7.312;2022-12-18T20:45:31;3.60;99.00
949;DHT22;461;51.436;7.312;2022-12-18T20:48:10;3.70;98.40
949;DHT22;461;51.436;7.312;2022-12-18T20:50:37;3.50;98.90
949;DHT22;461;51.436;7.312;2022-12-18T20:59:32;3.20;99.90
949;DHT22;461;51.436;7.312;2022-12-18T21:02:38;3.20;99.90